Time,TemperatureF,DewpointF,PressureIn,WindDirection,WindDirectionDegrees,WindSpeedMPH,WindSpeedGustMPH,Humidity,HourlyPrecipIn,Conditions,Clouds,dailyrainin,SoftwareType,DateUTC
2013-06-14 00:02:00,60.0,27.0,29.95,North,360,20.0,29.0,28,0.00,,,0.00,,2013-06-14 07:02:00,
2013-06-14 00:12:00,60.0,27.0,29.95,North,360,20.0,29.0,28,0.00,,,0.00,,2013-06-14 07:12:00,
2013-06-14 00:22:00,60.0,27.0,29.95,North,360,20.0,29.0,28,0.00,,,0.00,,2013-06-14 07:22:00,
2013-06-14 00:33:00,60.0,28.0,29.95,NNW,333,21.0,30.0,29,0.00,,,0.00,,2013-06-14 07:33:00,
2013-06-14 00:43:00,60.0,27.0,29.95,NNW,348,18.0,31.0,28,0.00,,,0.00,,2013-06-14 07:43:00,
2013-06-14 00:53:00,60.0,27.0,29.95,NNW,348,18.0,31.0,28,0.00,,,0.00,,2013-06-14 07:53:00,
2013-06-14 01:00:00,60.0,26.0,29.95,NNW,327,18.0,27.0,27,0.00,,,0.00,,2013-06-14 08:00:00,
2013-06-14 01:01:00,60.0,27.0,29.95,NNW,348,18.0,31.0,28,0.00,,,0.00,,2013-06-14 08:01:00,
2013-06-14 01:11:00,60.0,27.0,29.94,North,5,21.0,27.0,28,0.00,,,0.00,,2013-06-14 08:11:00,
2013-06-14 01:22:00,60.0,26.0,29.95,NNW,327,18.0,27.0,27,0.00,,,0.00,,2013-06-14 08:22:00,
2013-06-14 01:33:00,60.0,26.0,29.95,NNW,327,18.0,27.0,27,0.00,,,0.00,,2013-06-14 08:33:00,
2013-06-14 01:43:00,60.0,26.0,29.95,NNW,327,18.0,27.0,27,0.00,,,0.00,,2013-06-14 08:43:00,
2013-06-14 01:52:00,60.0,26.0,29.95,NNW,327,18.0,27.0,27,0.00,,,0.00,,2013-06-14 08:52:00,
2013-06-14 02:22:00,59.0,28.0,29.94,North,5,22.0,30.0,31,0.00,,,0.00,,2013-06-14 09:22:00,
2013-06-14 02:33:00,59.0,28.0,29.93,North,355,25.0,33.0,31,0.00,,,0.00,,2013-06-14 09:33:00,
2013-06-14 02:43:00,58.0,31.0,29.92,NNW,336,22.0,31.0,36,0.00,,,0.00,,2013-06-14 09:43:00,
2013-06-14 02:53:00,58.0,31.0,29.92,NNW,336,22.0,31.0,36,0.00,,,0.00,,2013-06-14 09:53:00,
2013-06-14 03:01:00,58.0,31.0,29.92,NNW,336,22.0,31.0,36,0.00,,,0.00,,2013-06-14 10:01:00,
2013-06-14 03:11:00,58.0,33.0,29.92,NNW,338,21.0,32.0,38,0.00,,,0.00,,2013-06-14 10:11:00,
2013-06-14 03:21:00,58.0,33.0,29.92,North,360,18.0,31.0,38,0.00,,,0.00,,2013-06-14 10:21:00,
2013-06-14 03:34:00,58.0,33.0,29.92,North,360,18.0,31.0,38,0.00,,,0.00,,2013-06-14 10:34:00,
2013-06-14 03:43:00,58.0,33.0,29.92,North,360,18.0,31.0,38,0.00,,,0.00,,2013-06-14 10:43:00,
2013-06-14 03:52:00,58.0,31.0,29.91,North,360,19.0,26.0,36,0.00,,,0.00,,2013-06-14 10:52:00,
2013-06-14 04:01:00,58.0,31.0,29.91,North,360,19.0,26.0,36,0.00,,,0.00,,2013-06-14 11:01:00,
2013-06-14 04:11:00,58.0,31.0,29.91,North,360,19.0,26.0,36,0.00,,,0.00,,2013-06-14 11:11:00,
2013-06-14 04:22:00,58.0,31.0,29.91,North,360,19.0,26.0,36,0.00,,,0.00,,2013-06-14 11:22:00,
2013-06-14 04:32:00,58.0,31.0,29.91,NNW,342,15.0,25.0,35,0.00,,,0.00,,2013-06-14 11:32:00,
2013-06-14 04:43:00,58.0,31.0,29.91,NNW,342,15.0,25.0,35,0.00,,,0.00,,2013-06-14 11:43:00,
2013-06-14 04:52:00,58.0,31.0,29.91,NNW,342,15.0,25.0,35,0.00,,,0.00,,2013-06-14 11:52:00,
2013-06-14 05:01:00,59.0,26.0,29.90,North,5,15.0,28.0,28,0.00,,,0.00,,2013-06-14 12:01:00,
2013-06-14 05:11:00,59.0,26.0,29.90,North,5,15.0,28.0,28,0.00,,,0.00,,2013-06-14 12:11:00,
2013-06-14 05:22:00,59.0,26.0,29.90,North,5,15.0,28.0,28,0.00,,,0.00,,2013-06-14 12:22:00,
2013-06-14 05:32:00,60.0,25.0,29.91,NNE,21,13.0,23.0,26,0.00,,,0.00,,2013-06-14 12:32:00,
2013-06-14 06:01:00,61.0,26.0,29.92,NNE,19,11.0,18.0,26,0.00,,,0.00,,2013-06-14 13:01:00,
2013-06-14 06:22:00,60.0,26.0,29.92,NNW,346,10.0,14.0,27,0.00,,,0.00,,2013-06-14 13:22:00,
2013-06-14 06:33:00,60.0,26.0,29.92,NNW,346,10.0,14.0,27,0.00,,,0.00,,2013-06-14 13:33:00,
2013-06-14 06:43:00,59.0,24.0,29.92,North,351,9.0,14.0,26,0.00,,,0.00,,2013-06-14 13:43:00,
2013-06-14 06:52:00,60.0,24.0,29.92,NNW,334,4.0,8.0,25,0.00,,,0.00,,2013-06-14 13:52:00,
2013-06-14 07:02:00,60.0,24.0,29.92,NNW,334,4.0,8.0,25,0.00,,,0.00,,2013-06-14 14:02:00,
2013-06-14 07:11:00,60.0,24.0,29.93,North,5,6.0,10.0,25,0.00,,,0.00,,2013-06-14 14:11:00,
2013-06-14 07:22:00,60.0,24.0,29.93,North,5,6.0,10.0,25,0.00,,,0.00,,2013-06-14 14:22:00,
2013-06-14 07:33:00,60.0,24.0,29.93,North,5,6.0,10.0,25,0.00,,,0.00,,2013-06-14 14:33:00,
2013-06-14 07:43:00,61.0,20.0,29.93,North,5,4.0,7.0,20,0.00,,,0.00,,2013-06-14 14:43:00,
2013-06-14 07:52:00,61.0,20.0,29.93,North,5,4.0,7.0,20,0.00,,,0.00,,2013-06-14 14:52:00,
2013-06-14 08:01:00,61.0,20.0,29.93,North,5,4.0,7.0,20,0.00,,,0.00,,2013-06-14 15:01:00,
2013-06-14 08:11:00,61.0,20.0,29.93,North,5,4.0,7.0,20,0.00,,,0.00,,2013-06-14 15:11:00,
2013-06-14 08:23:00,63.0,24.0,29.94,North,5,0.0,8.0,22,0.00,,,0.00,,2013-06-14 15:23:00,
2013-06-14 08:33:00,63.0,24.0,29.94,North,5,0.0,8.0,22,0.00,,,0.00,,2013-06-14 15:33:00,
2013-06-14 08:53:00,67.0,21.0,29.95,SSW,204,4.0,7.0,17,0.00,,,0.00,,2013-06-14 15:53:00,
2013-06-14 09:01:00,67.0,21.0,29.95,SSW,204,4.0,7.0,17,0.00,,,0.00,,2013-06-14 16:01:00,
2013-06-14 09:11:00,68.0,24.0,29.95,SW,232,5.0,7.0,19,0.00,,,0.00,,2013-06-14 16:11:00,
2013-06-14 09:22:00,68.0,24.0,29.95,SSW,192,5.0,7.0,19,0.00,,,0.00,,2013-06-14 16:22:00,
2013-06-14 09:32:00,69.0,24.0,29.95,South,190,5.0,9.0,18,0.00,,,0.00,,2013-06-14 16:32:00,
2013-06-14 09:43:00,69.0,24.0,29.95,South,190,5.0,9.0,18,0.00,,,0.00,,2013-06-14 16:43:00,
2013-06-14 09:52:00,69.0,24.0,29.95,South,190,5.0,9.0,18,0.00,,,0.00,,2013-06-14 16:52:00,
2013-06-14 10:02:00,69.0,24.0,29.95,South,190,5.0,9.0,18,0.00,,,0.00,,2013-06-14 17:02:00,
2013-06-14 10:11:00,69.0,24.0,29.95,South,190,5.0,9.0,18,0.00,,,0.00,,2013-06-14 17:11:00,
2013-06-14 10:43:00,72.0,25.0,29.94,South,170,6.0,13.0,17,0.00,,,0.00,,2013-06-14 17:43:00,
2013-06-14 10:53:00,72.0,25.0,29.94,South,170,6.0,13.0,17,0.00,,,0.00,,2013-06-14 17:53:00,
2013-06-14 11:02:00,72.0,25.0,29.94,South,170,6.0,13.0,17,0.00,,,0.00,,2013-06-14 18:02:00,
2013-06-14 11:11:00,72.0,25.0,29.94,South,170,6.0,13.0,17,0.00,,,0.00,,2013-06-14 18:11:00,
2013-06-14 11:21:00,74.0,23.0,29.94,SSW,202,3.0,15.0,15,0.00,,,0.00,,2013-06-14 18:21:00,
2013-06-14 11:32:00,75.0,26.0,29.94,SSW,197,7.0,11.0,16,0.00,,,0.00,,2013-06-14 18:32:00,
2013-06-14 11:42:00,76.0,22.0,29.93,South,188,8.0,13.0,13,0.00,,,0.00,,2013-06-14 18:42:00,
2013-06-14 11:52:00,76.0,22.0,29.93,South,188,8.0,13.0,13,0.00,,,0.00,,2013-06-14 18:52:00,
2013-06-14 12:01:00,76.0,22.0,29.93,SSW,194,10.0,16.0,13,0.00,,,0.00,,2013-06-14 19:01:00,
2013-06-14 12:11:00,76.0,18.0,29.93,SSE,165,3.0,16.0,11,0.00,,,0.00,,2013-06-14 19:11:00,
2013-06-14 12:21:00,77.0,20.0,29.93,South,180,4.0,10.0,12,0.00,,,0.00,,2013-06-14 19:21:00,
2013-06-14 12:32:00,77.0,22.0,29.93,SSW,205,10.0,16.0,13,0.00,,,0.00,,2013-06-14 19:32:00,
2013-06-14 12:42:00,77.0,18.0,29.93,SSE,166,5.0,16.0,11,0.00,,,0.00,,2013-06-14 19:42:00,
2013-06-14 12:53:00,77.0,18.0,29.93,SSE,166,5.0,16.0,11,0.00,,,0.00,,2013-06-14 19:53:00,
2013-06-14 13:01:00,78.0,17.0,29.93,South,188,8.0,15.0,10,0.00,,,0.00,,2013-06-14 20:01:00,
2013-06-14 13:11:00,79.0,20.0,29.92,SSW,202,6.0,8.0,11,0.00,,,0.00,,2013-06-14 20:11:00,
2013-06-14 13:22:00,79.0,22.0,29.92,SW,222,3.0,11.0,12,0.00,,,0.00,,2013-06-14 20:22:00,
2013-06-14 13:33:00,80.0,21.0,29.91,SSW,209,8.0,18.0,11,0.00,,,0.00,,2013-06-14 20:33:00,
2013-06-14 13:43:00,80.0,21.0,29.91,SSW,209,8.0,18.0,11,0.00,,,0.00,,2013-06-14 20:43:00,
2013-06-14 13:53:00,80.0,21.0,29.91,SSW,209,8.0,18.0,11,0.00,,,0.00,,2013-06-14 20:53:00,
2013-06-14 14:01:00,80.0,21.0,29.91,South,169,5.0,15.0,11,0.00,,,0.00,,2013-06-14 21:01:00,
2013-06-14 14:11:00,80.0,38.0,29.90,NNE,15,8.0,13.0,22,0.00,,,0.00,,2013-06-14 21:11:00,
2013-06-14 14:22:00,79.0,39.0,29.90,North,350,6.0,17.0,24,0.00,,,0.00,,2013-06-14 21:22:00,
2013-06-14 14:33:00,78.0,39.0,29.90,North,360,9.0,17.0,25,0.00,,,0.00,,2013-06-14 21:33:00,
2013-06-14 14:42:00,78.0,40.0,29.90,North,355,10.0,15.0,26,0.00,,,0.00,,2013-06-14 21:42:00,
2013-06-14 14:52:00,78.0,40.0,29.90,North,355,10.0,15.0,26,0.00,,,0.00,,2013-06-14 21:52:00,
2013-06-14 15:11:00,79.0,38.0,29.90,NNW,344,5.0,10.0,23,0.00,,,0.00,,2013-06-14 22:11:00,
2013-06-14 15:22:00,79.0,38.0,29.90,NNW,344,5.0,10.0,23,0.00,,,0.00,,2013-06-14 22:22:00,
2013-06-14 15:33:00,78.0,39.0,29.89,NNW,346,7.0,14.0,25,0.00,,,0.00,,2013-06-14 22:33:00,
2013-06-14 15:43:00,78.0,39.0,29.89,NNW,346,7.0,14.0,25,0.00,,,0.00,,2013-06-14 22:43:00,
2013-06-14 15:52:00,77.0,40.0,29.90,North,360,8.0,14.0,27,0.00,,,0.00,,2013-06-14 22:52:00,
2013-06-14 16:01:00,77.0,40.0,29.90,North,360,8.0,14.0,27,0.00,,,0.00,,2013-06-14 23:01:00,
2013-06-14 16:11:00,76.0,40.0,29.90,NNW,347,8.0,12.0,27,0.00,,,0.00,,2013-06-14 23:11:00,
2013-06-14 16:22:00,77.0,39.0,29.89,North,355,3.0,12.0,26,0.00,,,0.00,,2013-06-14 23:22:00,
2013-06-14 16:32:00,77.0,39.0,29.89,North,9,4.0,11.0,26,0.00,,,0.00,,2013-06-14 23:32:00,
2013-06-14 16:43:00,76.0,40.0,29.89,North,360,6.0,13.0,27,0.00,,,0.00,,2013-06-14 23:43:00,
2013-06-14 16:52:00,76.0,40.0,29.89,North,360,6.0,13.0,27,0.00,,,0.00,,2013-06-14 23:52:00,
2013-06-14 17:01:00,76.0,40.0,29.89,North,360,6.0,13.0,27,0.00,,,0.00,,2013-06-15 00:01:00,
2013-06-14 17:11:00,76.0,40.0,29.89,North,360,6.0,13.0,27,0.00,,,0.00,,2013-06-15 00:11:00,
2013-06-14 17:22:00,74.0,41.0,29.89,NW,311,8.0,16.0,31,0.00,,,0.00,,2013-06-15 00:22:00,
2013-06-14 17:34:00,74.0,41.0,29.89,NW,311,8.0,16.0,31,0.00,,,0.00,,2013-06-15 00:34:00,
2013-06-14 17:43:00,74.0,41.0,29.89,NW,311,8.0,16.0,31,0.00,,,0.00,,2013-06-15 00:43:00,
2013-06-14 17:53:00,74.0,41.0,29.89,NW,311,8.0,16.0,31,0.00,,,0.00,,2013-06-15 00:53:00,
2013-06-14 18:01:00,72.0,41.0,29.88,NNE,27,7.0,14.0,32,0.00,,,0.00,,2013-06-15 01:01:00,
2013-06-14 18:11:00,72.0,41.0,29.88,NNE,27,7.0,14.0,32,0.00,,,0.00,,2013-06-15 01:11:00,
2013-06-14 18:22:00,71.0,40.0,29.88,NNE,29,8.0,13.0,33,0.00,,,0.00,,2013-06-15 01:22:00,
2013-06-14 18:33:00,71.0,40.0,29.88,NNE,29,8.0,13.0,33,0.00,,,0.00,,2013-06-15 01:33:00,
2013-06-14 18:42:00,71.0,40.0,29.88,NNE,29,8.0,13.0,33,0.00,,,0.00,,2013-06-15 01:42:00,
2013-06-14 18:54:00,71.0,40.0,29.88,NNE,29,8.0,13.0,33,0.00,,,0.00,,2013-06-15 01:54:00,
2013-06-14 19:02:00,70.0,40.0,29.88,North,360,9.0,17.0,34,0.00,,,0.00,,2013-06-15 02:02:00,
2013-06-14 19:11:00,70.0,40.0,29.88,North,360,9.0,17.0,34,0.00,,,0.00,,2013-06-15 02:11:00,
2013-06-14 19:21:00,68.0,39.0,29.88,NNW,344,12.0,17.0,35,0.00,,,0.00,,2013-06-15 02:21:00,
2013-06-14 19:22:00,70.0,40.0,29.88,North,360,9.0,17.0,34,0.00,,,0.00,,2013-06-15 02:22:00,
2013-06-14 19:33:00,70.0,40.0,29.88,North,360,9.0,17.0,34,0.00,,,0.00,,2013-06-15 02:33:00,
2013-06-14 19:42:00,68.0,39.0,29.88,NNW,344,12.0,17.0,35,0.00,,,0.00,,2013-06-15 02:42:00,
2013-06-14 19:53:00,68.0,39.0,29.88,NNW,344,12.0,17.0,35,0.00,,,0.00,,2013-06-15 02:53:00,
2013-06-14 20:01:00,68.0,39.0,29.88,NNW,344,12.0,17.0,35,0.00,,,0.00,,2013-06-15 03:01:00,
2013-06-14 20:11:00,68.0,39.0,29.88,NNW,344,12.0,17.0,35,0.00,,,0.00,,2013-06-15 03:11:00,
2013-06-14 20:44:00,66.0,34.0,29.88,North,360,11.0,19.0,30,0.00,,,0.00,,2013-06-15 03:44:00,
2013-06-14 20:53:00,66.0,34.0,29.89,NNW,334,10.0,19.0,31,0.00,,,0.00,,2013-06-15 03:53:00,
2013-06-14 21:01:00,66.0,34.0,29.89,NNW,334,10.0,19.0,31,0.00,,,0.00,,2013-06-15 04:01:00,
2013-06-14 21:11:00,66.0,34.0,29.89,NNW,334,10.0,19.0,31,0.00,,,0.00,,2013-06-15 04:11:00,
2013-06-14 21:21:00,65.0,35.0,29.89,NNW,329,13.0,21.0,33,0.00,,,0.00,,2013-06-15 04:21:00,
2013-06-14 21:33:00,65.0,35.0,29.89,NNW,329,13.0,21.0,33,0.00,,,0.00,,2013-06-15 04:33:00,
2013-06-14 21:43:00,66.0,33.0,29.89,North,355,13.0,21.0,29,0.00,,,0.00,,2013-06-15 04:43:00,
2013-06-14 21:54:00,66.0,31.0,29.90,North,355,11.0,19.0,27,0.00,,,0.00,,2013-06-15 04:54:00,
2013-06-14 22:02:00,65.0,29.0,29.90,North,5,14.0,18.0,26,0.00,,,0.00,,2013-06-15 05:02:00,
2013-06-14 22:12:00,65.0,29.0,29.90,North,350,8.0,16.0,26,0.00,,,0.00,,2013-06-15 05:12:00,
2013-06-14 22:22:00,65.0,29.0,29.90,North,350,8.0,16.0,26,0.00,,,0.00,,2013-06-15 05:22:00,
2013-06-14 22:33:00,65.0,29.0,29.90,North,350,8.0,16.0,26,0.00,,,0.00,,2013-06-15 05:33:00,
2013-06-14 22:42:00,65.0,28.0,29.90,North,360,10.0,16.0,25,0.00,,,0.00,,2013-06-15 05:42:00,
2013-06-14 22:52:00,65.0,28.0,29.90,North,360,10.0,16.0,25,0.00,,,0.00,,2013-06-15 05:52:00,
2013-06-14 23:02:00,65.0,28.0,29.90,North,360,10.0,16.0,25,0.00,,,0.00,,2013-06-15 06:02:00,
2013-06-14 23:12:00,65.0,28.0,29.90,North,360,10.0,16.0,25,0.00,,,0.00,,2013-06-15 06:12:00,
2013-06-14 23:23:00,64.0,24.0,29.90,North,355,12.0,18.0,22,0.00,,,0.00,,2013-06-15 06:23:00,
2013-06-14 23:33:00,64.0,26.0,29.90,NNW,344,11.0,19.0,24,0.00,,,0.00,,2013-06-15 06:33:00,
2013-06-14 23:43:00,63.0,28.0,29.90,NNW,342,13.0,19.0,26,0.00,,,0.00,,2013-06-15 06:43:00,
2013-06-14 23:53:00,63.0,28.0,29.90,NNW,342,13.0,19.0,26,0.00,,,0.00,,2013-06-15 06:53:00,